sensor_id;sensor_type;location;lat;lon;timestamp;temperature;humidity
21502;DHT22;27639;48.674;9.242;2024-01-27T00:00:37;7.40;57.20
21502;DHT22;27639;48.674;9.242;2024-01-27T00:03:02;7.30;57.10
21502;DHT22;27639;48.674;9.242;2024-01-27T00:05:28;7.30;57.10
21502;DHT22;27639;48.674;9.242;2024-01-27T00:07:53;7.30;57.20
21502;DHT22;27639;48.674;9.242;2024-01-27T00:10:19;7.30;57.20
21502;DHT22;27639;48.674;9.242;2024-01-27T00:12:44;7.20;57.20
21502;DHT22;27639;48.674;9.242;2024-01-27T00:15:10;7.10;57.20
21502;DHT22;27639;48.674;9.242;2024-01-27T00:17:35;7.10;57.30
21502;DHT22;27639;48.674;9.242;2024-01-27T00:20:02;7.10;57.50
21502;DHT22;27639;48.674;9.242;2024-01-27T00:22:28;7.10;57.50
21502;DHT22;27639;48.674;9.242;2024-01-27T00:24:53;7.10;57.50
21502;DHT22;27639;48.674;9.242;2024-01-27T00:27:19;7.10;57.70
21502;DHT22;27639;48.674;9.242;2024-01-27T00:29:45;7.10;57.70
21502;DHT22;27639;48.674;9.242;2024-01-27T00:32:10;7.10;57.70
21502;DHT22;27639;48.674;9.242;2024-01-27T00:34:36;7.00;57.60
21502;DHT22;27639;48.674;9.242;2024-01-27T00:37:01;7.00;57.70
21502;DHT22;27639;48.674;9.242;2024-01-27T00:39:27;6.90;57.70
21502;DHT22;27639;48.674;9.242;2024-01-27T00:41:52;6.90;57.80
21502;DHT22;27639;48.674;9.242;2024-01-27T00:44:20;6.80;57.80
21502;DHT22;27639;48.674;9.242;2024-01-27T00:46:45;6.80;57.90
21502;DHT22;27639;48.674;9.242;2024-01-27T00:49:11;6.80;58.00
21502;DHT22;27639;48.674;9.242;2024-01-27T00:51:37;6.80;58.10
21502;DHT22;27639;48.674;9.242;2024-01-27T00:54:02;6.80;58.10
21502;DHT22;27639;48.674;9.242;2024-01-27T00:56:28;6.80;58.20
21502;DHT22;27639;48.674;9.242;2024-01-27T00:58:53;6.70;58.20
21502;DHT22;27639;48.674;9.242;2024-01-27T01:01:19;6.70;58.20
21502;DHT22;27639;48.674;9.242;2024-01-27T01:03:44;6.70;58.20
21502;DHT22;27639;48.674;9.242;2024-01-27T01:06:11;6.70;58.20
21502;DHT22;27639;48.674;9.242;2024-01-27T01:08:36;6.70;58.20
21502;DHT22;27639;48.674;9.242;2024-01-27T01:11:02;6.70;58.20
21502;DHT22;27639;48.674;9.242;2024-01-27T01:13:27;6.70;58.20
21502;DHT22;27639;48.674;9.242;2024-01-27T01:15:53;6.80;58.30
21502;DHT22;27639;48.674;9.242;2024-01-27T01:18:19;6.80;58.30
21502;DHT22;27639;48.674;9.242;2024-01-27T01:20:44;6.70;58.20
21502;DHT22;27639;48.674;9.242;2024-01-27T01:23:10;6.70;58.20
21502;DHT22;27639;48.674;9.242;2024-01-27T01:25:35;6.70;58.20
21502;DHT22;27639;48.674;9.242;2024-01-27T01:28:01;6.70;58.20
21502;DHT22;27639;48.674;9.242;2024-01-27T01:30:26;6.70;58.20
21502;DHT22;27639;48.674;9.242;2024-01-27T01:32:52;6.70;58.20
21502;DHT22;27639;48.674;9.242;2024-01-27T01:35:18;6.70;58.20
21502;DHT22;27639;48.674;9.242;2024-01-27T01:37:43;6.70;58.20
21502;DHT22;27639;48.674;9.242;2024-01-27T01:40:09;6.70;58.20
21502;DHT22;27639;48.674;9.242;2024-01-27T01:42:34;6.60;58.10
21502;DHT22;27639;48.674;9.242;2024-01-27T01:45:00;6.60;58.10
21502;DHT22;27639;48.674;9.242;2024-01-27T01:47:26;6.70;58.20
21502;DHT22;27639;48.674;9.242;2024-01-27T01:49:52;6.60;58.10
21502;DHT22;27639;48.674;9.242;2024-01-27T01:52:19;6.60;58.10
21502;DHT22;27639;48.674;9.242;2024-01-27T01:54:49;6.60;58.20
21502;DHT22;27639;48.674;9.242;2024-01-27T01:57:16;6.60;58.10
21502;DHT22;27639;48.674;9.242;2024-01-27T01:59:42;6.60;58.10
21502;DHT22;27639;48.674;9.242;2024-01-27T02:02:12;6.50;58.10
21502;DHT22;27639;48.674;9.242;2024-01-27T02:04:42;6.50;58.20
21502;DHT22;27639;48.674;9.242;2024-01-27T02:07:08;6.50;58.20
21502;DHT22;27639;48.674;9.242;2024-01-27T02:09:33;6.40;58.10
21502;DHT22;27639;48.674;9.242;2024-01-27T02:11:59;6.40;58.20
21502;DHT22;27639;48.674;9.242;2024-01-27T02:14:25;6.40;58.90
21502;DHT22;27639;48.674;9.242;2024-01-27T02:16:55;6.40;58.30
21502;DHT22;27639;48.674;9.242;2024-01-27T02:19:21;6.30;58.30
21502;DHT22;27639;48.674;9.242;2024-01-27T02:21:46;6.30;58.30
21502;DHT22;27639;48.674;9.242;2024-01-27T02:24:12;6.20;58.30
21502;DHT22;27639;48.674;9.242;2024-01-27T02:26:37;6.20;58.30
21502;DHT22;27639;48.674;9.242;2024-01-27T02:29:03;6.20;58.40
21502;DHT22;27639;48.674;9.242;2024-01-27T02:31:29;6.20;58.40
21502;DHT22;27639;48.674;9.242;2024-01-27T02:33:54;6.20;58.40
21502;DHT22;27639;48.674;9.242;2024-01-27T02:36:20;6.20;58.40
21502;DHT22;27639;48.674;9.242;2024-01-27T02:38:46;6.20;58.40
21502;DHT22;27639;48.674;9.242;2024-01-27T02:41:11;6.10;58.40
21502;DHT22;27639;48.674;9.242;2024-01-27T02:43:37;6.10;58.40
21502;DHT22;27639;48.674;9.242;2024-01-27T02:46:10;6.10;58.50
21502;DHT22;27639;48.674;9.242;2024-01-27T02:48:36;6.00;58.30
21502;DHT22;27639;48.674;9.242;2024-01-27T02:51:02;6.00;58.30
21502;DHT22;27639;48.674;9.242;2024-01-27T02:53:29;6.00;58.40
21502;DHT22;27639;48.674;9.242;2024-01-27T02:55:55;6.00;58.40
21502;DHT22;27639;48.674;9.242;2024-01-27T02:58:20;6.00;58.40
21502;DHT22;27639;48.674;9.242;2024-01-27T03:00:46;6.00;58.40
21502;DHT22;27639;48.674;9.242;2024-01-27T03:03:11;6.10;58.40
21502;DHT22;27639;48.674;9.242;2024-01-27T03:05:37;6.10;58.30
21502;DHT22;27639;48.674;9.242;2024-01-27T03:08:02;6.10;58.30
21502;DHT22;27639;48.674;9.242;2024-01-27T03:10:28;6.10;58.30
21502;DHT22;27639;48.674;9.242;2024-01-27T03:12:54;6.00;58.30
21502;DHT22;27639;48.674;9.242;2024-01-27T03:15:20;6.00;58.30
21502;DHT22;27639;48.674;9.242;2024-01-27T03:17:45;6.00;58.40
21502;DHT22;27639;48.674;9.242;2024-01-27T03:20:11;6.00;58.30
21502;DHT22;27639;48.674;9.242;2024-01-27T03:22:36;6.00;57.90
21502;DHT22;27639;48.674;9.242;2024-01-27T03:25:02;6.00;57.50
21502;DHT22;27639;48.674;9.242;2024-01-27T03:27:28;5.90;58.00
21502;DHT22;27639;48.674;9.242;2024-01-27T03:29:53;5.80;57.30
21502;DHT22;27639;48.674;9.242;2024-01-27T03:32:19;5.70;57.30
21502;DHT22;27639;48.674;9.242;2024-01-27T03:34:44;5.60;57.40
21502;DHT22;27639;48.674;9.242;2024-01-27T03:37:13;5.50;57.30
21502;DHT22;27639;48.674;9.242;2024-01-27T03:39:41;5.40;57.30
21502;DHT22;27639;48.674;9.242;2024-01-27T03:42:08;5.40;57.80
21502;DHT22;27639;48.674;9.242;2024-01-27T03:44:33;5.30;58.30
21502;DHT22;27639;48.674;9.242;2024-01-27T03:46:59;5.30;58.70
21502;DHT22;27639;48.674;9.242;2024-01-27T03:49:24;5.20;58.90
21502;DHT22;27639;48.674;9.242;2024-01-27T03:51:50;5.20;58.90
21502;DHT22;27639;48.674;9.242;2024-01-27T03:54:15;5.20;59.00
21502;DHT22;27639;48.674;9.242;2024-01-27T03:56:41;5.20;59.80
21502;DHT22;27639;48.674;9.242;2024-01-27T03:59:07;5.20;59.40
21502;DHT22;27639;48.674;9.242;2024-01-27T04:01:35;5.20;59.40
21502;DHT22;27639;48.674;9.242;2024-01-27T04:04:00;5.20;59.40
21502;DHT22;27639;48.674;9.242;2024-01-27T04:06:26;5.20;59.40
21502;DHT22;27639;48.674;9.242;2024-01-27T04:08:51;5.20;59.40
21502;DHT22;27639;48.674;9.242;2024-01-27T04:11:21;5.20;59.50
21502;DHT22;27639;48.674;9.242;2024-01-27T04:13:48;5.20;59.50
21502;DHT22;27639;48.674;9.242;2024-01-27T04:16:14;5.10;59.50
21502;DHT22;27639;48.674;9.242;2024-01-27T04:18:40;5.20;59.60
21502;DHT22;27639;48.674;9.242;2024-01-27T04:21:05;5.20;59.50
21502;DHT22;27639;48.674;9.242;2024-01-27T04:23:31;5.20;59.60
21502;DHT22;27639;48.674;9.242;2024-01-27T04:25:57;5.20;59.60
21502;DHT22;27639;48.674;9.242;2024-01-27T04:28:23;5.20;59.60
21502;DHT22;27639;48.674;9.242;2024-01-27T04:30:49;5.20;59.70
21502;DHT22;27639;48.674;9.242;2024-01-27T04:33:14;5.20;59.70
21502;DHT22;27639;48.674;9.242;2024-01-27T04:35:40;5.20;59.60
21502;DHT22;27639;48.674;9.242;2024-01-27T04:38:08;5.20;59.60
21502;DHT22;27639;48.674;9.242;2024-01-27T04:40:34;5.20;59.50
21502;DHT22;27639;48.674;9.242;2024-01-27T04:43:01;5.20;59.50
21502;DHT22;27639;48.674;9.242;2024-01-27T04:45:27;5.20;59.50
21502;DHT22;27639;48.674;9.242;2024-01-27T04:47:53;5.20;59.60
21502;DHT22;27639;48.674;9.242;2024-01-27T04:50:19;5.20;59.60
21502;DHT22;27639;48.674;9.242;2024-01-27T04:52:45;5.20;59.60
21502;DHT22;27639;48.674;9.242;2024-01-27T04:55:11;5.20;59.50
21502;DHT22;27639;48.674;9.242;2024-01-27T04:57:36;5.20;59.50
21502;DHT22;27639;48.674;9.242;2024-01-27T05:00:02;5.20;59.50
21502;DHT22;27639;48.674;9.242;2024-01-27T05:02:29;5.20;59.50
21502;DHT22;27639;48.674;9.242;2024-01-27T05:04:55;5.20;59.40
21502;DHT22;27639;48.674;9.242;2024-01-27T05:07:20;5.20;59.30
21502;DHT22;27639;48.674;9.242;2024-01-27T05:09:46;5.20;59.30
21502;DHT22;27639;48.674;9.242;2024-01-27T05:12:12;5.20;59.30
21502;DHT22;27639;48.674;9.242;2024-01-27T05:14:37;5.20;59.30
21502;DHT22;27639;48.674;9.242;2024-01-27T05:17:03;5.20;59.20
21502;DHT22;27639;48.674;9.242;2024-01-27T05:19:28;5.20;59.20
21502;DHT22;27639;48.674;9.242;2024-01-27T05:21:54;5.20;59.20
21502;DHT22;27639;48.674;9.242;2024-01-27T05:24:20;5.10;59.10
21502;DHT22;27639;48.674;9.242;2024-01-27T05:26:45;5.10;59.20
21502;DHT22;27639;48.674;9.242;2024-01-27T05:29:11;5.10;59.30
21502;DHT22;27639;48.674;9.242;2024-01-27T05:31:36;5.00;59.20
21502;DHT22;27639;48.674;9.242;2024-01-27T05:34:02;5.00;59.20
21502;DHT22;27639;48.674;9.242;2024-01-27T05:36:27;5.00;59.80
21502;DHT22;27639;48.674;9.242;2024-01-27T05:38:53;5.00;59.10
21502;DHT22;27639;48.674;9.242;2024-01-27T05:41:18;5.00;59.20
21502;DHT22;27639;48.674;9.242;2024-01-27T05:43:44;5.00;59.20
21502;DHT22;27639;48.674;9.242;2024-01-27T05:46:09;5.00;59.20
21502;DHT22;27639;48.674;9.242;2024-01-27T05:48:35;5.00;59.60
21502;DHT22;27639;48.674;9.242;2024-01-27T05:51:01;5.00;58.80
21502;DHT22;27639;48.674;9.242;2024-01-27T05:53:27;5.00;58.70
21502;DHT22;27639;48.674;9.242;2024-01-27T05:55:53;5.00;58.50
21502;DHT22;27639;48.674;9.242;2024-01-27T05:58:19;5.00;58.30
21502;DHT22;27639;48.674;9.242;2024-01-27T06:00:48;5.00;58.10
21502;DHT22;27639;48.674;9.242;2024-01-27T06:03:13;5.00;58.10
21502;DHT22;27639;48.674;9.242;2024-01-27T06:05:41;5.00;57.80
21502;DHT22;27639;48.674;9.242;2024-01-27T06:08:07;4.90;57.80
21502;DHT22;27639;48.674;9.242;2024-01-27T06:10:33;4.80;58.00
21502;DHT22;27639;48.674;9.242;2024-01-27T06:12:59;4.70;58.00
21502;DHT22;27639;48.674;9.242;2024-01-27T06:15:24;4.60;58.30
21502;DHT22;27639;48.674;9.242;2024-01-27T06:17:50;4.50;58.40
21502;DHT22;27639;48.674;9.242;2024-01-27T06:20:16;4.50;58.60
21502;DHT22;27639;48.674;9.242;2024-01-27T06:22:44;4.50;58.60
21502;DHT22;27639;48.674;9.242;2024-01-27T06:25:10;4.50;58.70
21502;DHT22;27639;48.674;9.242;2024-01-27T06:27:38;4.50;58.90
21502;DHT22;27639;48.674;9.242;2024-01-27T06:30:07;4.40;58.90
21502;DHT22;27639;48.674;9.242;2024-01-27T06:32:33;4.40;59.00
21502;DHT22;27639;48.674;9.242;2024-01-27T06:34:58;4.40;59.10
21502;DHT22;27639;48.674;9.242;2024-01-27T06:37:24;4.40;59.00
21502;DHT22;27639;48.674;9.242;2024-01-27T06:39:49;4.40;59.00
21502;DHT22;27639;48.674;9.242;2024-01-27T06:42:15;4.40;58.90
21502;DHT22;27639;48.674;9.242;2024-01-27T06:44:41;4.50;59.00
21502;DHT22;27639;48.674;9.242;2024-01-27T06:47:06;4.40;58.90
21502;DHT22;27639;48.674;9.242;2024-01-27T06:49:32;4.40;58.80
21502;DHT22;27639;48.674;9.242;2024-01-27T06:51:58;4.30;58.70
21502;DHT22;27639;48.674;9.242;2024-01-27T06:54:24;4.40;58.90
21502;DHT22;27639;48.674;9.242;2024-01-27T06:56:50;4.40;58.80
21502;DHT22;27639;48.674;9.242;2024-01-27T06:59:15;4.40;59.00
21502;DHT22;27639;48.674;9.242;2024-01-27T07:01:47;4.40;59.00
21502;DHT22;27639;48.674;9.242;2024-01-27T07:04:17;4.30;59.10
21502;DHT22;27639;48.674;9.242;2024-01-27T07:06:43;4.30;59.20
21502;DHT22;27639;48.674;9.242;2024-01-27T07:09:08;4.30;59.10
21502;DHT22;27639;48.674;9.242;2024-01-27T07:11:37;4.30;59.50
21502;DHT22;27639;48.674;9.242;2024-01-27T07:14:06;4.20;59.40
21502;DHT22;27639;48.674;9.242;2024-01-27T07:16:34;4.30;59.60
21502;DHT22;27639;48.674;9.242;2024-01-27T07:19:00;4.30;59.50
21502;DHT22;27639;48.674;9.242;2024-01-27T07:21:26;4.30;59.30
21502;DHT22;27639;48.674;9.242;2024-01-27T07:23:52;4.40;59.40
21502;DHT22;27639;48.674;9.242;2024-01-27T07:26:19;4.30;59.30
21502;DHT22;27639;48.674;9.242;2024-01-27T07:28:44;4.40;59.30
21502;DHT22;27639;48.674;9.242;2024-01-27T07:31:10;4.50;59.30
21502;DHT22;27639;48.674;9.242;2024-01-27T07:33:36;4.50;59.00
21502;DHT22;27639;48.674;9.242;2024-01-27T07:36:04;4.50;58.60
21502;DHT22;27639;48.674;9.242;2024-01-27T07:38:29;4.40;58.50
21502;DHT22;27639;48.674;9.242;2024-01-27T07:40:55;4.40;58.40
21502;DHT22;27639;48.674;9.242;2024-01-27T07:43:21;4.40;58.50
21502;DHT22;27639;48.674;9.242;2024-01-27T07:45:46;4.30;58.50
21502;DHT22;27639;48.674;9.242;2024-01-27T07:48:12;4.30;58.40
21502;DHT22;27639;48.674;9.242;2024-01-27T07:50:37;4.30;58.40
21502;DHT22;27639;48.674;9.242;2024-01-27T07:53:03;4.20;58.40
21502;DHT22;27639;48.674;9.242;2024-01-27T07:55:29;4.20;58.80
21502;DHT22;27639;48.674;9.242;2024-01-27T07:57:54;4.20;59.00
21502;DHT22;27639;48.674;9.242;2024-01-27T08:00:20;4.20;59.40
21502;DHT22;27639;48.674;9.242;2024-01-27T08:02:46;4.10;59.50
21502;DHT22;27639;48.674;9.242;2024-01-27T08:05:11;4.10;60.00
21502;DHT22;27639;48.674;9.242;2024-01-27T08:07:37;4.10;60.00
21502;DHT22;27639;48.674;9.242;2024-01-27T08:10:03;4.20;60.20
21502;DHT22;27639;48.674;9.242;2024-01-27T08:12:30;4.20;60.30
21502;DHT22;27639;48.674;9.242;2024-01-27T08:14:55;4.20;60.30
21502;DHT22;27639;48.674;9.242;2024-01-27T08:17:21;4.30;60.40
21502;DHT22;27639;48.674;9.242;2024-01-27T08:19:47;4.40;60.50
21502;DHT22;27639;48.674;9.242;2024-01-27T08:22:13;4.50;60.50
21502;DHT22;27639;48.674;9.242;2024-01-27T08:24:38;4.50;60.40
21502;DHT22;27639;48.674;9.242;2024-01-27T08:27:04;4.60;60.20
21502;DHT22;27639;48.674;9.242;2024-01-27T08:29:30;4.70;60.30
21502;DHT22;27639;48.674;9.242;2024-01-27T08:31:56;4.70;60.00
21502;DHT22;27639;48.674;9.242;2024-01-27T08:34:22;4.80;60.00
21502;DHT22;27639;48.674;9.242;2024-01-27T08:36:47;4.80;60.00
21502;DHT22;27639;48.674;9.242;2024-01-27T08:39:13;4.80;59.80
21502;DHT22;27639;48.674;9.242;2024-01-27T08:41:39;4.80;60.40
21502;DHT22;27639;48.674;9.242;2024-01-27T08:44:04;4.80;59.70
21502;DHT22;27639;48.674;9.242;2024-01-27T08:46:30;4.80;59.70
21502;DHT22;27639;48.674;9.242;2024-01-27T08:48:56;4.90;59.80
21502;DHT22;27639;48.674;9.242;2024-01-27T08:51:21;4.90;59.60
21502;DHT22;27639;48.674;9.242;2024-01-27T08:53:47;4.90;59.60
21502;DHT22;27639;48.674;9.242;2024-01-27T08:56:16;4.90;59.50
21502;DHT22;27639;48.674;9.242;2024-01-27T08:58:43;4.90;59.30
21502;DHT22;27639;48.674;9.242;2024-01-27T09:01:10;4.90;59.40
21502;DHT22;27639;48.674;9.242;2024-01-27T09:03:38;4.80;59.90
21502;DHT22;27639;48.674;9.242;2024-01-27T09:06:05;4.90;60.40
21502;DHT22;27639;48.674;9.242;2024-01-27T09:08:30;4.90;61.00
21502;DHT22;27639;48.674;9.242;2024-01-27T09:10:56;5.00;61.50
21502;DHT22;27639;48.674;9.242;2024-01-27T09:13:21;5.00;61.60
21502;DHT22;27639;48.674;9.242;2024-01-27T09:15:47;5.10;62.10
21502;DHT22;27639;48.674;9.242;2024-01-27T09:18:14;5.20;62.70
21502;DHT22;27639;48.674;9.242;2024-01-27T09:20:40;5.30;61.80
21502;DHT22;27639;48.674;9.242;2024-01-27T09:23:06;5.40;61.90
21502;DHT22;27639;48.674;9.242;2024-01-27T09:25:31;5.40;61.80
21502;DHT22;27639;48.674;9.242;2024-01-27T09:27:57;5.60;61.80
21502;DHT22;27639;48.674;9.242;2024-01-27T09:30:26;5.80;61.80
21502;DHT22;27639;48.674;9.242;2024-01-27T09:32:51;5.90;61.40
21502;DHT22;27639;48.674;9.242;2024-01-27T09:35:17;6.10;61.20
21502;DHT22;27639;48.674;9.242;2024-01-27T09:37:43;6.20;61.10
21502;DHT22;27639;48.674;9.242;2024-01-27T09:40:11;6.20;61.00
21502;DHT22;27639;48.674;9.242;2024-01-27T09:42:38;6.30;61.10
21502;DHT22;27639;48.674;9.242;2024-01-27T09:45:08;6.40;61.00
21502;DHT22;27639;48.674;9.242;2024-01-27T09:47:35;6.50;60.90
21502;DHT22;27639;48.674;9.242;2024-01-27T09:50:01;6.60;60.90
21502;DHT22;27639;48.674;9.242;2024-01-27T09:52:27;6.60;60.90
21502;DHT22;27639;48.674;9.242;2024-01-27T09:54:52;6.80;61.00
21502;DHT22;27639;48.674;9.242;2024-01-27T09:57:18;6.90;60.70
21502;DHT22;27639;48.674;9.242;2024-01-27T09:59:47;7.10;60.60
21502;DHT22;27639;48.674;9.242;2024-01-27T10:02:15;7.20;60.30
21502;DHT22;27639;48.674;9.242;2024-01-27T10:04:41;7.40;60.00
21502;DHT22;27639;48.674;9.242;2024-01-27T10:07:08;7.50;59.70
21502;DHT22;27639;48.674;9.242;2024-01-27T10:09:33;7.60;59.70
21502;DHT22;27639;48.674;9.242;2024-01-27T10:12:01;7.70;59.50
21502;DHT22;27639;48.674;9.242;2024-01-27T10:14:41;7.80;59.00
21502;DHT22;27639;48.674;9.242;2024-01-27T10:17:11;7.80;58.90
21502;DHT22;27639;48.674;9.242;2024-01-27T10:19:37;8.10;59.20
21502;DHT22;27639;48.674;9.242;2024-01-27T10:22:03;8.30;58.60
21502;DHT22;27639;48.674;9.242;2024-01-27T10:24:31;8.50;58.20
21502;DHT22;27639;48.674;9.242;2024-01-27T10:27:01;8.70;58.10
21502;DHT22;27639;48.674;9.242;2024-01-27T10:29:26;8.70;57.30
21502;DHT22;27639;48.674;9.242;2024-01-27T10:31:52;8.90;57.10
21502;DHT22;27639;48.674;9.242;2024-01-27T10:34:20;9.10;56.40
21502;DHT22;27639;48.674;9.242;2024-01-27T10:36:46;9.10;56.30
21502;DHT22;27639;48.674;9.242;2024-01-27T10:39:21;9.20;56.70
21502;DHT22;27639;48.674;9.242;2024-01-27T10:41:48;9.40;56.50
21502;DHT22;27639;48.674;9.242;2024-01-27T10:44:17;9.50;56.20
21502;DHT22;27639;48.674;9.242;2024-01-27T10:46:46;9.50;55.80
21502;DHT22;27639;48.674;9.242;2024-01-27T10:49:14;9.60;55.40
21502;DHT22;27639;48.674;9.242;2024-01-27T10:51:46;9.60;55.40
21502;DHT22;27639;48.674;9.242;2024-01-27T10:54:19;9.70;55.40
21502;DHT22;27639;48.674;9.242;2024-01-27T10:56:45;9.80;54.60
21502;DHT22;27639;48.674;9.242;2024-01-27T10:59:12;9.80;54.60
21502;DHT22;27639;48.674;9.242;2024-01-27T11:01:40;9.80;54.10
21502;DHT22;27639;48.674;9.242;2024-01-27T11:04:06;9.80;54.30
21502;DHT22;27639;48.674;9.242;2024-01-27T11:06:35;9.70;54.50
21502;DHT22;27639;48.674;9.242;2024-01-27T11:09:01;9.80;54.60
21502;DHT22;27639;48.674;9.242;2024-01-27T11:11:29;9.80;54.50
21502;DHT22;27639;48.674;9.242;2024-01-27T11:13:55;9.80;54.40
21502;DHT22;27639;48.674;9.242;2024-01-27T11:16:21;9.80;54.20
21502;DHT22;27639;48.674;9.242;2024-01-27T11:18:48;9.90;54.20
21502;DHT22;27639;48.674;9.242;2024-01-27T11:21:17;9.90;54.20
21502;DHT22;27639;48.674;9.242;2024-01-27T11:23:43;9.90;54.20
21502;DHT22;27639;48.674;9.242;2024-01-27T11:26:10;9.90;53.60
21502;DHT22;27639;48.674;9.242;2024-01-27T11:28:40;10.00;52.70
21502;DHT22;27639;48.674;9.242;2024-01-27T11:31:07;10.00;52.60
21502;DHT22;27639;48.674;9.242;2024-01-27T11:33:33;10.10;52.70
21502;DHT22;27639;48.674;9.242;2024-01-27T11:36:02;10.10;52.80
21502;DHT22;27639;48.674;9.242;2024-01-27T11:38:29;10.10;53.00
21502;DHT22;27639;48.674;9.242;2024-01-27T11:40:55;10.20;53.10
21502;DHT22;27639;48.674;9.242;2024-01-27T11:43:21;10.30;52.90
21502;DHT22;27639;48.674;9.242;2024-01-27T11:46:00;10.40;52.90
21502;DHT22;27639;48.674;9.242;2024-01-27T11:48:26;10.50;52.40
21502;DHT22;27639;48.674;9.242;2024-01-27T11:51:11;10.60;52.40
21502;DHT22;27639;48.674;9.242;2024-01-27T11:53:37;10.70;52.20
21502;DHT22;27639;48.674;9.242;2024-01-27T11:56:04;10.70;53.00
21502;DHT22;27639;48.674;9.242;2024-01-27T11:58:30;10.90;53.50
21502;DHT22;27639;48.674;9.242;2024-01-27T12:00:59;10.90;52.50
21502;DHT22;27639;48.674;9.242;2024-01-27T12:03:26;11.00;52.40
21502;DHT22;27639;48.674;9.242;2024-01-27T12:05:52;11.10;52.30
21502;DHT22;27639;48.674;9.242;2024-01-27T12:08:17;11.10;52.60
21502;DHT22;27639;48.674;9.242;2024-01-27T12:10:43;11.20;53.00
21502;DHT22;27639;48.674;9.242;2024-01-27T12:13:09;11.30;52.40
21502;DHT22;27639;48.674;9.242;2024-01-27T12:15:35;11.50;51.40
21502;DHT22;27639;48.674;9.242;2024-01-27T12:18:01;11.60;51.10
21502;DHT22;27639;48.674;9.242;2024-01-27T12:20:27;11.60;50.90
21502;DHT22;27639;48.674;9.242;2024-01-27T12:23:06;11.60;50.80
21502;DHT22;27639;48.674;9.242;2024-01-27T12:25:32;11.60;50.60
21502;DHT22;27639;48.674;9.242;2024-01-27T12:28:04;11.50;50.50
21502;DHT22;27639;48.674;9.242;2024-01-27T12:30:32;11.50;50.20
21502;DHT22;27639;48.674;9.242;2024-01-27T12:32:58;11.60;49.80
21502;DHT22;27639;48.674;9.242;2024-01-27T12:35:24;11.60;49.70
21502;DHT22;27639;48.674;9.242;2024-01-27T12:37:50;11.70;49.80
21502;DHT22;27639;48.674;9.242;2024-01-27T12:40:20;11.90;49.40
21502;DHT22;27639;48.674;9.242;2024-01-27T12:42:46;11.80;49.00
21502;DHT22;27639;48.674;9.242;2024-01-27T12:45:12;11.70;49.40
21502;DHT22;27639;48.674;9.242;2024-01-27T12:47:38;11.70;49.40
21502;DHT22;27639;48.674;9.242;2024-01-27T12:50:04;11.90;49.30
21502;DHT22;27639;48.674;9.242;2024-01-27T12:52:30;12.00;49.30
21502;DHT22;27639;48.674;9.242;2024-01-27T12:54:55;12.10;48.80
21502;DHT22;27639;48.674;9.242;2024-01-27T12:57:21;12.20;48.30
21502;DHT22;27639;48.674;9.242;2024-01-27T12:59:46;12.20;48.10
21502;DHT22;27639;48.674;9.242;2024-01-27T13:02:12;12.10;48.10
21502;DHT22;27639;48.674;9.242;2024-01-27T13:04:38;12.00;48.20
21502;DHT22;27639;48.674;9.242;2024-01-27T13:07:03;11.90;48.30
21502;DHT22;27639;48.674;9.242;2024-01-27T13:09:29;11.90;48.10
21502;DHT22;27639;48.674;9.242;2024-01-27T13:11:55;11.90;48.30
21502;DHT22;27639;48.674;9.242;2024-01-27T13:14:20;11.80;48.40
21502;DHT22;27639;48.674;9.242;2024-01-27T13:16:46;11.80;48.10
21502;DHT22;27639;48.674;9.242;2024-01-27T13:19:12;11.80;48.10
21502;DHT22;27639;48.674;9.242;2024-01-27T13:21:37;11.80;48.40
21502;DHT22;27639;48.674;9.242;2024-01-27T13:24:05;11.90;48.20
21502;DHT22;27639;48.674;9.242;2024-01-27T13:26:32;11.90;47.70
21502;DHT22;27639;48.674;9.242;2024-01-27T13:29:00;12.00;47.80
21502;DHT22;27639;48.674;9.242;2024-01-27T13:31:25;12.10;47.80
21502;DHT22;27639;48.674;9.242;2024-01-27T13:33:51;12.20;47.80
21502;DHT22;27639;48.674;9.242;2024-01-27T13:36:16;12.30;47.30
21502;DHT22;27639;48.674;9.242;2024-01-27T13:38:42;12.30;47.10
21502;DHT22;27639;48.674;9.242;2024-01-27T13:41:08;12.20;47.10
21502;DHT22;27639;48.674;9.242;2024-01-27T13:43:33;12.20;47.20
21502;DHT22;27639;48.674;9.242;2024-01-27T13:45:59;12.20;47.40
21502;DHT22;27639;48.674;9.242;2024-01-27T13:48:25;12.20;47.40
21502;DHT22;27639;48.674;9.242;2024-01-27T13:50:52;12.20;47.30
21502;DHT22;27639;48.674;9.242;2024-01-27T13:53:18;12.30;47.20
21502;DHT22;27639;48.674;9.242;2024-01-27T13:55:43;12.30;47.40
21502;DHT22;27639;48.674;9.242;2024-01-27T13:58:10;12.30;47.40
21502;DHT22;27639;48.674;9.242;2024-01-27T14:00:35;12.30;47.10
21502;DHT22;27639;48.674;9.242;2024-01-27T14:03:01;12.30;47.10
21502;DHT22;27639;48.674;9.242;2024-01-27T14:05:26;12.40;46.90
21502;DHT22;27639;48.674;9.242;2024-01-27T14:07:52;12.40;46.50
21502;DHT22;27639;48.674;9.242;2024-01-27T14:10:18;12.30;46.20
21502;DHT22;27639;48.674;9.242;2024-01-27T14:12:44;12.40;46.20
21502;DHT22;27639;48.674;9.242;2024-01-27T14:15:10;12.40;46.00
21502;DHT22;27639;48.674;9.242;2024-01-27T14:17:36;12.40;46.10
21502;DHT22;27639;48.674;9.242;2024-01-27T14:20:02;12.40;46.00
21502;DHT22;27639;48.674;9.242;2024-01-27T14:22:29;12.40;46.00
21502;DHT22;27639;48.674;9.242;2024-01-27T14:24:54;12.30;45.70
21502;DHT22;27639;48.674;9.242;2024-01-27T14:27:20;12.30;46.00
21502;DHT22;27639;48.674;9.242;2024-01-27T14:29:52;12.20;46.00
21502;DHT22;27639;48.674;9.242;2024-01-27T14:32:18;12.20;46.10
21502;DHT22;27639;48.674;9.242;2024-01-27T14:34:44;12.20;46.10
21502;DHT22;27639;48.674;9.242;2024-01-27T14:37:09;12.30;46.00
21502;DHT22;27639;48.674;9.242;2024-01-27T14:39:35;12.20;46.10
21502;DHT22;27639;48.674;9.242;2024-01-27T14:42:01;12.20;46.50
21502;DHT22;27639;48.674;9.242;2024-01-27T14:44:29;12.20;46.30
21502;DHT22;27639;48.674;9.242;2024-01-27T14:46:55;12.20;46.30
21502;DHT22;27639;48.674;9.242;2024-01-27T14:49:21;12.10;47.00
21502;DHT22;27639;48.674;9.242;2024-01-27T14:51:47;12.10;46.30
21502;DHT22;27639;48.674;9.242;2024-01-27T14:54:13;12.20;46.20
21502;DHT22;27639;48.674;9.242;2024-01-27T14:56:39;12.20;46.10
21502;DHT22;27639;48.674;9.242;2024-01-27T14:59:04;12.20;46.00
21502;DHT22;27639;48.674;9.242;2024-01-27T15:01:33;12.20;46.00
21502;DHT22;27639;48.674;9.242;2024-01-27T15:03:58;12.20;45.90
21502;DHT22;27639;48.674;9.242;2024-01-27T15:06:26;12.20;45.90
21502;DHT22;27639;48.674;9.242;2024-01-27T15:08:52;12.20;45.90
21502;DHT22;27639;48.674;9.242;2024-01-27T15:11:18;12.20;45.60
21502;DHT22;27639;48.674;9.242;2024-01-27T15:13:43;12.20;45.60
21502;DHT22;27639;48.674;9.242;2024-01-27T15:16:09;12.10;45.80
21502;DHT22;27639;48.674;9.242;2024-01-27T15:18:35;12.10;46.00
21502;DHT22;27639;48.674;9.242;2024-01-27T15:21:03;12.10;46.00
21502;DHT22;27639;48.674;9.242;2024-01-27T15:23:28;12.10;46.20
21502;DHT22;27639;48.674;9.242;2024-01-27T15:25:54;12.00;46.30
21502;DHT22;27639;48.674;9.242;2024-01-27T15:28:20;12.00;46.30
21502;DHT22;27639;48.674;9.242;2024-01-27T15:30:46;12.00;46.40
21502;DHT22;27639;48.674;9.242;2024-01-27T15:33:14;11.90;46.40
21502;DHT22;27639;48.674;9.242;2024-01-27T15:35:40;11.90;46.50